Airfield :
LOGIN :

Register | Disclaimer

   EN    FR    IT 

 










Legend :    VFR   Marginal VFR   IFR   Intensive IFR   Very Intensive IFR
Visi :
Ceiling :
>= 8 km
>= 3000ft
5 to 8 km
1000 to 3000 ft
1500m to 5 km
500 to 1000 ft
800 to 1500m
200 to 500 ft
< 800m
< 200 ft
Symbols :   Thunderstorms  Fog  Heavy snow  Heavy precipitations  Wind > 20 kt
SIGMETs :     Misc.  Thunderstorms  Icing  Turbulence  Mountain Waves  Volcanic Ashes







- Airport Elevation : 353 ft
- IATA code : ZAG


LDZA - Zagreb Pleso

CURRENT METAR :
  • 251400Z 23014KT 180V260 CAVOK 22/05 Q1011 NOSIG

EXPIRED METARs :
  • 251330Z 22015G25KT 180V250 CAVOK 21/06 Q1011 NOSIG
  • 251300Z 23014KT 180V260 CAVOK 22/07 Q1012 NOSIG
  • 251230Z 23015KT 180V260 CAVOK 21/07 Q1012 NOSIG
  • 251200Z 24016KT 210V280 CAVOK 20/06 Q1012 NOSIG
  • 251130Z 24017KT 200V280 CAVOK 20/06 Q1012 NOSIG

TAF TAF LDZA
Valid from the 25 at 12:00 until the 26 at 12:00 UTC


251125Z 2512/2612 23012KT CAVOK TX22/2513Z TN09/2604Z
PROB40
TEMPO 2512/2516 23022KT
ATIS : +385 1 6-259-214
No reported NOTAMs for that airfield.



MET'MAP, your aeronautical weather chart ! - Copyright ORBIFLY December 2007 - Disclaimer

ORBIFLY MET'MAP TEAM :

Programming & Development : Alexandra Zaïnal
Concept & Development : Baudouin d'Aumeries
Co-Development & Prog : Marc-Olivier Méhu
Technical & hardware support : Manuel Goepfert

Contact : metmap@orbifly.com




SOURCES & CREDITS :

   NOAA